sensor_id;sensor_type;location;lat;lon;timestamp;pressure;altitude;pressure_sealevel;temperature;humidity
48115;BME280;33903;44.704;10.448;2024-03-22T00:01:10;100870.22;;;15.42;82.83
48115;BME280;33903;44.704;10.448;2024-03-22T00:04:15;100867.53;;;15.15;84.13
48115;BME280;33903;44.704;10.448;2024-03-22T00:07:19;100871.69;;;15.09;84.67
48115;BME280;33903;44.704;10.448;2024-03-22T00:10:24;100872.66;;;15.18;83.89
48115;BME280;33903;44.704;10.448;2024-03-22T00:13:28;100879.75;;;15.19;83.95
48115;BME280;33903;44.704;10.448;2024-03-22T00:16:33;100885.16;;;15.19;84.61
48115;BME280;33903;44.704;10.448;2024-03-22T00:19:38;100877.25;;;15.08;84.36
48115;BME280;33903;44.704;10.448;2024-03-22T00:22:42;100869.16;;;14.80;83.97
48115;BME280;33903;44.704;10.448;2024-03-22T00:25:47;100872.03;;;14.69;84.51
48115;BME280;33903;44.704;10.448;2024-03-22T00:28:51;100867.63;;;14.68;84.30
48115;BME280;33903;44.704;10.448;2024-03-22T00:31:56;100877.97;;;14.82;84.13
48115;BME280;33903;44.704;10.448;2024-03-22T00:35:00;100878.59;;;14.94;83.13
48115;BME280;33903;44.704;10.448;2024-03-22T00:38:05;100878.94;;;14.91;83.39
48115;BME280;33903;44.704;10.448;2024-03-22T00:41:09;100870.06;;;14.71;83.93
48115;BME280;33903;44.704;10.448;2024-03-22T00:44:14;100862.91;;;14.33;85.11
48115;BME280;33903;44.704;10.448;2024-03-22T00:47:18;100865.16;;;14.48;84.23
48115;BME280;33903;44.704;10.448;2024-03-22T00:50:23;100861.47;;;14.49;84.65
48115;BME280;33903;44.704;10.448;2024-03-22T00:53:28;100861.72;;;14.55;84.21
48115;BME280;33903;44.704;10.448;2024-03-22T00:56:33;100856.38;;;14.36;84.62
48115;BME280;33903;44.704;10.448;2024-03-22T00:59:37;100850.53;;;14.41;85.32
48115;BME280;33903;44.704;10.448;2024-03-22T01:02:42;100862.28;;;14.59;84.58
48115;BME280;33903;44.704;10.448;2024-03-22T01:05:46;100862.38;;;14.67;83.83
48115;BME280;33903;44.704;10.448;2024-03-22T01:08:51;100858.03;;;14.56;83.94
48115;BME280;33903;44.704;10.448;2024-03-22T01:11:58;100855.56;;;14.63;83.52
48115;BME280;33903;44.704;10.448;2024-03-22T01:15:03;100854.16;;;14.59;83.88
48115;BME280;33903;44.704;10.448;2024-03-22T01:18:08;100860.38;;;14.69;82.97
48115;BME280;33903;44.704;10.448;2024-03-22T01:21:12;100856.84;;;14.68;82.68
48115;BME280;33903;44.704;10.448;2024-03-22T01:24:17;100848.50;;;14.52;83.23
48115;BME280;33903;44.704;10.448;2024-03-22T01:27:21;100848.66;;;14.51;83.19
48115;BME280;33903;44.704;10.448;2024-03-22T01:30:26;100858.59;;;14.50;83.27
48115;BME280;33903;44.704;10.448;2024-03-22T01:33:33;100856.63;;;14.43;83.01
48115;BME280;33903;44.704;10.448;2024-03-22T01:36:38;100862.91;;;14.24;83.27
48115;BME280;33903;44.704;10.448;2024-03-22T01:39:43;100858.66;;;14.21;83.35
48115;BME280;33903;44.704;10.448;2024-03-22T01:42:47;100865.75;;;14.13;83.24
48115;BME280;33903;44.704;10.448;2024-03-22T01:45:52;100871.88;;;14.15;82.36
48115;BME280;33903;44.704;10.448;2024-03-22T01:48:56;100862.09;;;13.76;84.35
48115;BME280;33903;44.704;10.448;2024-03-22T01:52:01;100867.94;;;13.61;85.93
48115;BME280;33903;44.704;10.448;2024-03-22T01:55:07;100864.81;;;13.66;85.17
48115;BME280;33903;44.704;10.448;2024-03-22T01:58:12;100855.72;;;13.77;84.43
48115;BME280;33903;44.704;10.448;2024-03-22T02:01:17;100858.16;;;13.80;84.69
48115;BME280;33903;44.704;10.448;2024-03-22T02:04:21;100849.75;;;13.83;84.80
48115;BME280;33903;44.704;10.448;2024-03-22T02:07:29;100859.56;;;13.64;85.88
48115;BME280;33903;44.704;10.448;2024-03-22T02:10:34;100856.88;;;13.74;85.15
48115;BME280;33903;44.704;10.448;2024-03-22T02:13:39;100851.91;;;13.69;86.03
48115;BME280;33903;44.704;10.448;2024-03-22T02:16:44;100855.72;;;13.77;85.03
48115;BME280;33903;44.704;10.448;2024-03-22T02:19:49;100854.16;;;13.84;85.17
48115;BME280;33903;44.704;10.448;2024-03-22T02:22:53;100854.56;;;13.98;84.72
48115;BME280;33903;44.704;10.448;2024-03-22T02:25:58;100864.50;;;14.07;84.22
48115;BME280;33903;44.704;10.448;2024-03-22T02:29:02;100861.53;;;14.01;83.89
48115;BME280;33903;44.704;10.448;2024-03-22T02:32:07;100855.56;;;13.78;84.51
48115;BME280;33903;44.704;10.448;2024-03-22T02:35:11;100862.22;;;13.36;86.26
48115;BME280;33903;44.704;10.448;2024-03-22T02:38:16;100859.13;;;13.40;85.85
48115;BME280;33903;44.704;10.448;2024-03-22T02:41:21;100857.25;;;13.41;85.77
48115;BME280;33903;44.704;10.448;2024-03-22T02:44:26;100862.28;;;13.64;85.35
48115;BME280;33903;44.704;10.448;2024-03-22T02:47:30;100867.06;;;13.61;85.63
48115;BME280;33903;44.704;10.448;2024-03-22T02:50:36;100870.06;;;13.58;85.44
48115;BME280;33903;44.704;10.448;2024-03-22T02:53:41;100871.78;;;13.68;85.10
48115;BME280;33903;44.704;10.448;2024-03-22T02:56:45;100876.88;;;13.72;85.21
48115;BME280;33903;44.704;10.448;2024-03-22T02:59:50;100878.56;;;13.44;86.38
48115;BME280;33903;44.704;10.448;2024-03-22T03:02:54;100868.91;;;13.41;86.67
48115;BME280;33903;44.704;10.448;2024-03-22T03:05:58;100874.13;;;13.24;87.33
48115;BME280;33903;44.704;10.448;2024-03-22T03:09:03;100869.94;;;13.40;86.80
48115;BME280;33903;44.704;10.448;2024-03-22T03:12:13;100863.34;;;13.14;88.75
48115;BME280;33903;44.704;10.448;2024-03-22T03:15:17;100865.22;;;13.23;89.09
48115;BME280;33903;44.704;10.448;2024-03-22T03:18:22;100860.28;;;13.47;87.92
48115;BME280;33903;44.704;10.448;2024-03-22T03:21:26;100858.41;;;13.38;87.89
48115;BME280;33903;44.704;10.448;2024-03-22T03:24:30;100863.25;;;13.44;88.13
48115;BME280;33903;44.704;10.448;2024-03-22T03:27:35;100858.84;;;13.43;87.72
48115;BME280;33903;44.704;10.448;2024-03-22T03:30:40;100862.81;;;13.30;88.39
48115;BME280;33903;44.704;10.448;2024-03-22T03:33:44;100872.28;;;13.24;88.88
48115;BME280;33903;44.704;10.448;2024-03-22T03:36:48;100866.53;;;12.98;89.44
48115;BME280;33903;44.704;10.448;2024-03-22T03:39:53;100872.03;;;13.27;88.16
48115;BME280;33903;44.704;10.448;2024-03-22T03:42:57;100869.50;;;13.35;87.72
48115;BME280;33903;44.704;10.448;2024-03-22T03:46:01;100877.41;;;13.27;87.16
48115;BME280;33903;44.704;10.448;2024-03-22T03:49:06;100882.63;;;13.19;86.67
48115;BME280;33903;44.704;10.448;2024-03-22T03:52:10;100868.00;;;13.12;86.76
48115;BME280;33903;44.704;10.448;2024-03-22T03:55:14;100880.56;;;13.02;86.77
48115;BME280;33903;44.704;10.448;2024-03-22T03:58:19;100878.94;;;13.11;86.42
48115;BME280;33903;44.704;10.448;2024-03-22T04:01:24;100872.88;;;13.28;85.53
48115;BME280;33903;44.704;10.448;2024-03-22T04:04:28;100885.38;;;13.38;85.64
48115;BME280;33903;44.704;10.448;2024-03-22T04:07:33;100885.59;;;13.16;85.59
48115;BME280;33903;44.704;10.448;2024-03-22T04:10:37;100884.81;;;12.95;86.83
48115;BME280;33903;44.704;10.448;2024-03-22T04:13:42;100880.06;;;12.78;87.51
48115;BME280;33903;44.704;10.448;2024-03-22T04:16:46;100873.78;;;12.68;88.47
48115;BME280;33903;44.704;10.448;2024-03-22T04:19:51;100869.06;;;12.90;87.04
48115;BME280;33903;44.704;10.448;2024-03-22T04:22:55;100870.56;;;12.74;87.91
48115;BME280;33903;44.704;10.448;2024-03-22T04:26:01;100865.75;;;12.77;87.89
48115;BME280;33903;44.704;10.448;2024-03-22T04:29:05;100867.91;;;12.83;88.25
48115;BME280;33903;44.704;10.448;2024-03-22T04:32:10;100872.16;;;12.86;87.58
48115;BME280;33903;44.704;10.448;2024-03-22T04:35:14;100867.06;;;12.92;87.07
48115;BME280;33903;44.704;10.448;2024-03-22T04:38:18;100886.22;;;12.99;85.64
48115;BME280;33903;44.704;10.448;2024-03-22T04:41:23;100872.91;;;12.97;85.74
48115;BME280;33903;44.704;10.448;2024-03-22T04:44:28;100879.97;;;12.89;86.87
48115;BME280;33903;44.704;10.448;2024-03-22T04:47:33;100874.88;;;12.86;86.74
48115;BME280;33903;44.704;10.448;2024-03-22T04:50:37;100881.16;;;12.66;88.89
48115;BME280;33903;44.704;10.448;2024-03-22T04:53:42;100874.94;;;12.75;88.10
48115;BME280;33903;44.704;10.448;2024-03-22T04:56:46;100881.69;;;12.90;88.05
48115;BME280;33903;44.704;10.448;2024-03-22T04:59:51;100878.09;;;12.80;88.65
48115;BME280;33903;44.704;10.448;2024-03-22T05:02:55;100880.78;;;12.80;88.28
48115;BME280;33903;44.704;10.448;2024-03-22T05:05:59;100874.25;;;12.73;89.22
48115;BME280;33903;44.704;10.448;2024-03-22T05:09:07;100882.06;;;12.76;89.14
48115;BME280;33903;44.704;10.448;2024-03-22T05:12:14;100879.09;;;12.49;89.96
48115;BME280;33903;44.704;10.448;2024-03-22T05:15:18;100887.16;;;12.79;89.62
48115;BME280;33903;44.704;10.448;2024-03-22T05:18:23;100888.63;;;12.92;88.43
48115;BME280;33903;44.704;10.448;2024-03-22T05:21:27;100892.16;;;12.83;89.03
48115;BME280;33903;44.704;10.448;2024-03-22T05:24:32;100877.38;;;13.08;87.61
48115;BME280;33903;44.704;10.448;2024-03-22T05:27:36;100883.00;;;13.05;87.85
48115;BME280;33903;44.704;10.448;2024-03-22T05:30:41;100886.53;;;12.96;87.96
48115;BME280;33903;44.704;10.448;2024-03-22T05:33:45;100896.53;;;13.15;87.54
48115;BME280;33903;44.704;10.448;2024-03-22T05:36:50;100889.34;;;13.34;86.88
48115;BME280;33903;44.704;10.448;2024-03-22T05:39:55;100889.63;;;13.41;86.31
48115;BME280;33903;44.704;10.448;2024-03-22T05:43:00;100893.34;;;13.49;85.80
48115;BME280;33903;44.704;10.448;2024-03-22T05:46:05;100902.47;;;13.77;85.23
48115;BME280;33903;44.704;10.448;2024-03-22T05:49:10;100889.53;;;14.00;84.20
48115;BME280;33903;44.704;10.448;2024-03-22T05:52:14;100905.81;;;14.17;83.12
48115;BME280;33903;44.704;10.448;2024-03-22T05:55:18;100901.03;;;14.02;83.37
48115;BME280;33903;44.704;10.448;2024-03-22T05:58:23;100894.59;;;14.12;83.33
48115;BME280;33903;44.704;10.448;2024-03-22T06:01:27;100889.31;;;14.40;82.26
48115;BME280;33903;44.704;10.448;2024-03-22T06:04:32;100891.00;;;14.50;81.59
48115;BME280;33903;44.704;10.448;2024-03-22T06:07:37;100892.81;;;14.59;80.98
48115;BME280;33903;44.704;10.448;2024-03-22T06:10:46;100888.69;;;14.65;80.41
48115;BME280;33903;44.704;10.448;2024-03-22T06:13:50;100891.28;;;14.93;79.62
48115;BME280;33903;44.704;10.448;2024-03-22T06:16:55;100894.00;;;15.21;78.47
48115;BME280;33903;44.704;10.448;2024-03-22T06:19:59;100900.91;;;15.33;78.08
48115;BME280;33903;44.704;10.448;2024-03-22T06:23:05;100898.38;;;15.49;77.29
48115;BME280;33903;44.704;10.448;2024-03-22T06:26:09;100900.47;;;15.73;76.49
48115;BME280;33903;44.704;10.448;2024-03-22T06:29:13;100904.69;;;15.85;76.46
48115;BME280;33903;44.704;10.448;2024-03-22T06:32:20;100906.03;;;16.24;74.94
48115;BME280;33903;44.704;10.448;2024-03-22T06:35:24;100917.53;;;16.44;74.80
48115;BME280;33903;44.704;10.448;2024-03-22T06:38:32;100925.41;;;16.37;73.70
48115;BME280;33903;44.704;10.448;2024-03-22T06:41:36;100932.00;;;16.35;73.71
48115;BME280;33903;44.704;10.448;2024-03-22T06:44:41;100925.31;;;16.47;73.04
48115;BME280;33903;44.704;10.448;2024-03-22T06:47:46;100932.72;;;16.37;74.07
48115;BME280;33903;44.704;10.448;2024-03-22T06:50:50;100932.94;;;16.61;74.46
48115;BME280;33903;44.704;10.448;2024-03-22T06:53:54;100939.34;;;16.85;72.56
48115;BME280;33903;44.704;10.448;2024-03-22T06:56:58;100938.44;;;16.77;72.67
48115;BME280;33903;44.704;10.448;2024-03-22T07:00:03;100931.28;;;16.94;71.95
48115;BME280;33903;44.704;10.448;2024-03-22T07:03:08;100940.84;;;17.14;70.72
48115;BME280;33903;44.704;10.448;2024-03-22T07:06:14;100938.34;;;17.20;70.26
48115;BME280;33903;44.704;10.448;2024-03-22T07:09:18;100941.66;;;17.40;70.38
48115;BME280;33903;44.704;10.448;2024-03-22T07:12:22;100946.84;;;17.33;70.53
48115;BME280;33903;44.704;10.448;2024-03-22T07:15:26;100947.72;;;17.34;70.50
48115;BME280;33903;44.704;10.448;2024-03-22T07:18:32;100944.97;;;17.60;69.38
48115;BME280;33903;44.704;10.448;2024-03-22T07:21:36;100946.31;;;17.64;69.47
48115;BME280;33903;44.704;10.448;2024-03-22T07:24:40;100948.91;;;17.81;68.57
48115;BME280;33903;44.704;10.448;2024-03-22T07:27:44;100960.31;;;17.93;67.60
48115;BME280;33903;44.704;10.448;2024-03-22T07:30:50;100960.19;;;18.18;67.58
48115;BME280;33903;44.704;10.448;2024-03-22T07:33:54;100971.03;;;18.10;67.66
48115;BME280;33903;44.704;10.448;2024-03-22T07:36:59;100965.59;;;18.18;67.33
48115;BME280;33903;44.704;10.448;2024-03-22T07:40:04;100964.47;;;18.53;66.91
48115;BME280;33903;44.704;10.448;2024-03-22T07:43:09;100962.16;;;18.97;64.87
48115;BME280;33903;44.704;10.448;2024-03-22T07:46:14;100963.25;;;19.74;62.54
48115;BME280;33903;44.704;10.448;2024-03-22T07:49:19;100963.59;;;20.47;60.51
48115;BME280;33903;44.704;10.448;2024-03-22T07:52:23;100965.75;;;21.76;56.10
48115;BME280;33903;44.704;10.448;2024-03-22T07:55:28;100954.94;;;22.67;53.06
48115;BME280;33903;44.704;10.448;2024-03-22T07:58:33;100957.78;;;23.43;50.15
48115;BME280;33903;44.704;10.448;2024-03-22T08:01:38;100961.25;;;25.16;45.81
48115;BME280;33903;44.704;10.448;2024-03-22T08:04:42;100958.88;;;25.97;43.57
48115;BME280;33903;44.704;10.448;2024-03-22T08:07:47;100950.91;;;27.01;41.12
48115;BME280;33903;44.704;10.448;2024-03-22T08:10:51;100957.16;;;28.17;37.89
48115;BME280;33903;44.704;10.448;2024-03-22T08:13:56;100955.06;;;29.30;36.18
48115;BME280;33903;44.704;10.448;2024-03-22T08:17:07;100950.59;;;29.17;36.83
48115;BME280;33903;44.704;10.448;2024-03-22T08:20:13;100951.47;;;29.69;35.74
48115;BME280;33903;44.704;10.448;2024-03-22T08:23:17;100952.75;;;30.46;34.25
48115;BME280;33903;44.704;10.448;2024-03-22T08:26:24;100951.16;;;30.83;33.42
48115;BME280;33903;44.704;10.448;2024-03-22T08:29:28;100943.56;;;31.94;32.02
48115;BME280;33903;44.704;10.448;2024-03-22T08:32:33;100942.25;;;31.75;32.06
48115;BME280;33903;44.704;10.448;2024-03-22T08:35:37;100943.72;;;31.82;32.40
48115;BME280;33903;44.704;10.448;2024-03-22T08:38:43;100946.44;;;32.89;30.04
48115;BME280;33903;44.704;10.448;2024-03-22T08:41:47;100957.16;;;32.70;30.10
48115;BME280;33903;44.704;10.448;2024-03-22T08:44:52;100963.88;;;32.48;30.95
48115;BME280;33903;44.704;10.448;2024-03-22T08:47:57;100956.50;;;32.58;30.94
48115;BME280;33903;44.704;10.448;2024-03-22T08:51:02;100957.69;;;32.67;30.61
48115;BME280;33903;44.704;10.448;2024-03-22T08:54:07;100969.88;;;31.65;32.19
48115;BME280;33903;44.704;10.448;2024-03-22T08:57:11;100966.13;;;31.16;33.30
48115;BME280;33903;44.704;10.448;2024-03-22T09:00:17;100969.84;;;31.26;32.65
48115;BME280;33903;44.704;10.448;2024-03-22T09:03:21;100968.22;;;30.75;33.62
48115;BME280;33903;44.704;10.448;2024-03-22T09:06:26;100974.16;;;30.51;33.27
48115;BME280;33903;44.704;10.448;2024-03-22T09:09:30;100973.25;;;30.78;33.23
48115;BME280;33903;44.704;10.448;2024-03-22T09:12:35;100967.28;;;30.53;33.57
48115;BME280;33903;44.704;10.448;2024-03-22T09:15:40;100961.72;;;30.37;34.26
48115;BME280;33903;44.704;10.448;2024-03-22T09:18:44;100966.44;;;30.86;33.01
48115;BME280;33903;44.704;10.448;2024-03-22T09:21:49;100963.78;;;30.01;33.89
48115;BME280;33903;44.704;10.448;2024-03-22T09:24:54;100959.56;;;29.59;34.62
48115;BME280;33903;44.704;10.448;2024-03-22T09:27:59;100960.75;;;27.51;38.43
48115;BME280;33903;44.704;10.448;2024-03-22T09:31:07;100957.66;;;26.80;40.52
48115;BME280;33903;44.704;10.448;2024-03-22T09:34:14;100964.16;;;25.48;43.69
48115;BME280;33903;44.704;10.448;2024-03-22T09:37:20;100954.97;;;24.83;45.10
48115;BME280;33903;44.704;10.448;2024-03-22T09:40:25;100948.81;;;24.35;47.63
48115;BME280;33903;44.704;10.448;2024-03-22T09:43:30;100945.84;;;24.24;47.94
48115;BME280;33903;44.704;10.448;2024-03-22T09:46:37;100941.09;;;23.91;49.49
48115;BME280;33903;44.704;10.448;2024-03-22T09:49:43;100934.78;;;23.98;49.97
48115;BME280;33903;44.704;10.448;2024-03-22T09:52:52;100930.41;;;24.10;49.83
48115;BME280;33903;44.704;10.448;2024-03-22T09:55:59;100934.78;;;23.37;51.76
48115;BME280;33903;44.704;10.448;2024-03-22T09:59:06;100936.06;;;23.07;52.28
48115;BME280;33903;44.704;10.448;2024-03-22T10:02:16;100924.06;;;23.08;52.47
48115;BME280;33903;44.704;10.448;2024-03-22T10:05:20;100927.72;;;22.87;53.88
48115;BME280;33903;44.704;10.448;2024-03-22T10:08:25;100927.22;;;23.11;52.98
48115;BME280;33903;44.704;10.448;2024-03-22T10:11:30;100927.34;;;22.97;52.21
48115;BME280;33903;44.704;10.448;2024-03-22T10:14:35;100920.53;;;22.86;53.70
48115;BME280;33903;44.704;10.448;2024-03-22T10:17:41;100930.41;;;22.81;52.05
48115;BME280;33903;44.704;10.448;2024-03-22T10:20:46;100925.19;;;22.86;52.95
48115;BME280;33903;44.704;10.448;2024-03-22T10:23:50;100920.06;;;22.55;52.34
48115;BME280;33903;44.704;10.448;2024-03-22T10:26:57;100906.28;;;22.63;51.25
48115;BME280;33903;44.704;10.448;2024-03-22T10:30:02;100907.00;;;22.50;53.02
48115;BME280;33903;44.704;10.448;2024-03-22T10:33:08;100903.44;;;22.08;53.29
48115;BME280;33903;44.704;10.448;2024-03-22T10:36:13;100896.09;;;22.08;55.22
48115;BME280;33903;44.704;10.448;2024-03-22T10:39:18;100897.66;;;21.96;56.38
48115;BME280;33903;44.704;10.448;2024-03-22T10:42:23;100900.38;;;21.75;56.96
48115;BME280;33903;44.704;10.448;2024-03-22T10:45:29;100888.34;;;21.90;57.21
48115;BME280;33903;44.704;10.448;2024-03-22T10:48:33;100892.91;;;21.48;57.79
48115;BME280;33903;44.704;10.448;2024-03-22T10:51:38;100890.63;;;21.51;56.64
48115;BME280;33903;44.704;10.448;2024-03-22T10:54:44;100882.69;;;21.56;56.82
48115;BME280;33903;44.704;10.448;2024-03-22T10:57:50;100880.34;;;21.53;57.11
48115;BME280;33903;44.704;10.448;2024-03-22T11:00:56;100878.28;;;21.40;56.15
48115;BME280;33903;44.704;10.448;2024-03-22T11:04:04;100873.63;;;21.20;57.96
48115;BME280;33903;44.704;10.448;2024-03-22T11:07:20;100863.16;;;21.23;56.46
48115;BME280;33903;44.704;10.448;2024-03-22T11:10:26;100863.28;;;21.01;57.54
48115;BME280;33903;44.704;10.448;2024-03-22T11:13:36;100859.22;;;20.97;57.47
48115;BME280;33903;44.704;10.448;2024-03-22T11:16:47;100859.34;;;21.03;58.04
48115;BME280;33903;44.704;10.448;2024-03-22T11:19:52;100858.28;;;20.90;57.23
48115;BME280;33903;44.704;10.448;2024-03-22T11:22:56;100854.03;;;21.02;58.30
48115;BME280;33903;44.704;10.448;2024-03-22T11:26:01;100839.38;;;20.88;58.72
48115;BME280;33903;44.704;10.448;2024-03-22T11:29:05;100840.91;;;21.05;59.32
48115;BME280;33903;44.704;10.448;2024-03-22T11:32:11;100831.56;;;21.14;59.64
48115;BME280;33903;44.704;10.448;2024-03-22T11:35:19;100825.44;;;21.12;59.67
48115;BME280;33903;44.704;10.448;2024-03-22T11:38:25;100823.75;;;21.11;58.09
48115;BME280;33903;44.704;10.448;2024-03-22T11:41:31;100821.94;;;21.04;58.70
48115;BME280;33903;44.704;10.448;2024-03-22T11:44:39;100823.16;;;21.01;58.82
48115;BME280;33903;44.704;10.448;2024-03-22T11:47:46;100808.78;;;21.07;59.68
48115;BME280;33903;44.704;10.448;2024-03-22T11:50:51;100795.31;;;20.91;58.87
48115;BME280;33903;44.704;10.448;2024-03-22T11:53:58;100802.28;;;20.94;59.19
48115;BME280;33903;44.704;10.448;2024-03-22T11:57:04;100797.63;;;21.23;58.56
48115;BME280;33903;44.704;10.448;2024-03-22T12:00:09;100792.31;;;21.36;58.33
48115;BME280;33903;44.704;10.448;2024-03-22T12:03:20;100782.94;;;21.24;57.41
48115;BME280;33903;44.704;10.448;2024-03-22T12:06:27;100780.16;;;21.18;56.44
48115;BME280;33903;44.704;10.448;2024-03-22T12:09:50;100774.50;;;21.40;56.06
48115;BME280;33903;44.704;10.448;2024-03-22T12:12:58;100776.50;;;21.11;52.96
48115;BME280;33903;44.704;10.448;2024-03-22T12:16:22;100769.63;;;21.15;52.16
48115;BME280;33903;44.704;10.448;2024-03-22T12:19:26;100757.56;;;21.09;53.83
48115;BME280;33903;44.704;10.448;2024-03-22T12:22:32;100752.47;;;21.42;54.81
48115;BME280;33903;44.704;10.448;2024-03-22T12:25:38;100750.84;;;21.48;49.90
48115;BME280;33903;44.704;10.448;2024-03-22T12:28:43;100748.38;;;21.53;49.17
48115;BME280;33903;44.704;10.448;2024-03-22T12:31:47;100754.09;;;21.36;50.17
48115;BME280;33903;44.704;10.448;2024-03-22T12:34:52;100739.13;;;21.54;49.95
48115;BME280;33903;44.704;10.448;2024-03-22T12:38:15;100734.56;;;21.61;47.29
48115;BME280;33903;44.704;10.448;2024-03-22T12:41:20;100731.81;;;21.61;47.36
48115;BME280;33903;44.704;10.448;2024-03-22T12:44:24;100727.84;;;21.63;47.11
48115;BME280;33903;44.704;10.448;2024-03-22T12:47:30;100722.84;;;21.67;47.43
48115;BME280;33903;44.704;10.448;2024-03-22T12:50:36;100709.59;;;21.64;47.62
48115;BME280;33903;44.704;10.448;2024-03-22T12:53:42;100709.94;;;21.82;47.71
48115;BME280;33903;44.704;10.448;2024-03-22T12:56:47;100712.34;;;21.70;44.97
48115;BME280;33903;44.704;10.448;2024-03-22T12:59:53;100709.59;;;21.64;45.39
48115;BME280;33903;44.704;10.448;2024-03-22T13:02:59;100697.97;;;21.55;44.76
48115;BME280;33903;44.704;10.448;2024-03-22T13:06:04;100697.41;;;21.66;44.84
48115;BME280;33903;44.704;10.448;2024-03-22T13:09:10;100693.94;;;21.79;44.11
48115;BME280;33903;44.704;10.448;2024-03-22T13:12:17;100690.56;;;21.77;42.69
48115;BME280;33903;44.704;10.448;2024-03-22T13:15:22;100680.38;;;21.64;42.82
48115;BME280;33903;44.704;10.448;2024-03-22T13:18:26;100677.81;;;21.63;44.30
48115;BME280;33903;44.704;10.448;2024-03-22T13:21:31;100670.81;;;21.75;45.15
48115;BME280;33903;44.704;10.448;2024-03-22T13:24:35;100671.09;;;21.59;41.86
48115;BME280;33903;44.704;10.448;2024-03-22T13:27:42;100657.00;;;21.34;41.54
48115;BME280;33903;44.704;10.448;2024-03-22T13:31:05;100650.31;;;21.64;41.61
48115;BME280;33903;44.704;10.448;2024-03-22T13:34:10;100642.47;;;21.82;43.23
48115;BME280;33903;44.704;10.448;2024-03-22T13:37:14;100638.19;;;22.01;41.44
48115;BME280;33903;44.704;10.448;2024-03-22T13:40:20;100630.63;;;22.03;43.13
48115;BME280;33903;44.704;10.448;2024-03-22T13:43:27;100626.47;;;22.07;43.90
48115;BME280;33903;44.704;10.448;2024-03-22T13:46:32;100623.03;;;21.98;40.94
48115;BME280;33903;44.704;10.448;2024-03-22T13:49:37;100618.47;;;22.12;41.25
48115;BME280;33903;44.704;10.448;2024-03-22T13:56:08;100607.97;;;22.16;43.45
48115;BME280;33903;44.704;10.448;2024-03-22T13:59:13;100599.78;;;22.16;44.06
48115;BME280;33903;44.704;10.448;2024-03-22T14:02:22;100593.69;;;22.20;40.76
48115;BME280;33903;44.704;10.448;2024-03-22T14:05:26;100587.38;;;22.20;42.48
48115;BME280;33903;44.704;10.448;2024-03-22T14:08:31;100591.13;;;22.12;40.01
48115;BME280;33903;44.704;10.448;2024-03-22T14:11:36;100581.47;;;22.10;38.69
48115;BME280;33903;44.704;10.448;2024-03-22T14:14:41;100570.97;;;22.20;40.20
48115;BME280;33903;44.704;10.448;2024-03-22T14:17:46;100567.13;;;22.01;41.47
48115;BME280;33903;44.704;10.448;2024-03-22T14:20:50;100571.19;;;22.18;40.70
48115;BME280;33903;44.704;10.448;2024-03-22T14:23:55;100564.44;;;22.14;40.28
48115;BME280;33903;44.704;10.448;2024-03-22T14:27:19;100557.56;;;22.31;39.31
48115;BME280;33903;44.704;10.448;2024-03-22T14:30:24;100558.41;;;22.32;40.33
48115;BME280;33903;44.704;10.448;2024-03-22T14:33:29;100555.56;;;22.12;39.67
48115;BME280;33903;44.704;10.448;2024-03-22T14:36:35;100552.84;;;22.12;39.84
48115;BME280;33903;44.704;10.448;2024-03-22T14:39:39;100550.78;;;22.21;39.47
48115;BME280;33903;44.704;10.448;2024-03-22T14:43:05;100546.59;;;22.25;39.76
48115;BME280;33903;44.704;10.448;2024-03-22T14:46:10;100539.44;;;22.24;40.49
48115;BME280;33903;44.704;10.448;2024-03-22T14:49:14;100539.03;;;22.33;37.94
48115;BME280;33903;44.704;10.448;2024-03-22T14:52:19;100530.22;;;22.38;37.66
48115;BME280;33903;44.704;10.448;2024-03-22T14:55:25;100528.97;;;22.40;37.62
48115;BME280;33903;44.704;10.448;2024-03-22T14:58:31;100526.41;;;22.32;37.88
48115;BME280;33903;44.704;10.448;2024-03-22T15:01:36;100530.22;;;22.31;37.03
48115;BME280;33903;44.704;10.448;2024-03-22T15:04:41;100527.66;;;22.30;37.38
48115;BME280;33903;44.704;10.448;2024-03-22T15:07:46;100528.09;;;22.33;37.25
48115;BME280;33903;44.704;10.448;2024-03-22T15:10:51;100510.22;;;22.31;35.78
48115;BME280;33903;44.704;10.448;2024-03-22T15:13:55;100509.13;;;22.19;36.06
48115;BME280;33903;44.704;10.448;2024-03-22T15:16:59;100515.47;;;22.26;33.98
48115;BME280;33903;44.704;10.448;2024-03-22T15:20:04;100515.06;;;22.42;33.67
48115;BME280;33903;44.704;10.448;2024-03-22T15:23:10;100513.81;;;22.44;34.00
48115;BME280;33903;44.704;10.448;2024-03-22T15:26:14;100510.44;;;22.42;32.71
48115;BME280;33903;44.704;10.448;2024-03-22T15:29:19;100510.84;;;22.39;32.55
48115;BME280;33903;44.704;10.448;2024-03-22T15:32:23;100499.09;;;22.45;32.91
48115;BME280;33903;44.704;10.448;2024-03-22T15:35:30;100495.09;;;22.41;33.44
48115;BME280;33903;44.704;10.448;2024-03-22T15:38:35;100496.75;;;22.42;34.68
48115;BME280;33903;44.704;10.448;2024-03-22T15:41:40;100496.34;;;22.39;35.38
48115;BME280;33903;44.704;10.448;2024-03-22T15:44:44;100489.19;;;22.31;35.32
48115;BME280;33903;44.704;10.448;2024-03-22T15:47:49;100483.03;;;22.16;35.21
48115;BME280;33903;44.704;10.448;2024-03-22T15:50:54;100481.16;;;22.23;36.09
48115;BME280;33903;44.704;10.448;2024-03-22T15:53:58;100486.41;;;22.18;37.20
48115;BME280;33903;44.704;10.448;2024-03-22T15:57:03;100472.91;;;22.10;38.25
48115;BME280;33903;44.704;10.448;2024-03-22T16:00:08;100470.19;;;22.10;38.81